• Join FlightAware (Why Join?)
  • Login
  • US Flag 
04:28PM EDT


 

Airport Tracker/Info


-or-


 

Live Flight TrackerFlight Track Log ✈ EGF3706 ✈ 07-Jul-2013 ✈ KORD - KBDL

Flight Track Log - Related Links

Times and Time Zones

All times are in EDT time to prevent confusion due to time zone crossing. See the EGF3706 flight status page for this flight to view local times or setup timezone preferences in your user account.

Time Position Orientation Groundspeed Altitude Reporting Facility
EDT Latitude Longitude Course Direction KTS MPH feet Rate Location/Type
11:57AM 42.0000 -87.9500 90° East 171 197 1,800  Level Chicago TRACON
11:58AM 42.0500 -87.9333 14° North 263 303 3,700 1,680 Climbing Chicago TRACON
11:59AM 42.0432 -87.4146 79° East  Level FlightAware Approximate
11:59AM 42.1167 -87.8667 37° Northeast 284 327 5,200  Level Chicago TRACON
11:59AM 42.1444 -87.8411 34° Northeast 279 321 6,300 2,520 Climbing Chicago Center
12:00PM 42.0679 -87.2504 78° East  Level FlightAware Approximate
12:00PM 42.1728 -87.7503 67° East 299 344 9,100  Level Chicago Center
12:01PM 42.0939 -87.0865 77° East  Level FlightAware Approximate
12:02PM 42.1167 -86.9223 90° East  Level FlightAware Approximate
12:02PM 42.1439 -87.6436 110° East 306 352 11,900  Level Chicago Center
12:03PM 42.1392 -87.5256 93° East 314 361 13,400 1,260 Climbing Chicago Center
12:04PM 42.1286 -87.3550 95° East 376 433 14,600 1,140 Climbing Chicago Center
12:05PM 42.1203 -87.1994 94° East 411 473 15,800 1,380 Climbing Chicago Center
12:06PM 42.1131 -87.0422 93° East 421 484 17,500 1,560 Climbing Chicago Center
12:07PM 42.1189 -86.8833 87° East 423 487 19,100 1,560 Climbing Chicago Center
12:08PM 42.1242 -86.7258 87° East 424 488 20,800 1,380 Climbing Chicago Center
12:09PM 42.1300 -86.5464 87° East 429 494 22,000 1,080 Climbing Chicago Center
12:10PM 42.1361 -86.3806 87° East 441 507 23,100 960 Climbing Chicago Center
12:11PM 42.1408 -86.2108 88° East 450 518 24,100 960 Climbing Chicago Center
12:12PM 42.1436 -86.0386 89° East 459 528 25,100 960 Climbing Chicago Center
12:13PM 42.1414 -85.8458 91° East 461 531 26,200 900 Climbing Chicago Center
12:14PM 42.1400 -85.6711 91° East 468 539 27,000 360 Climbing Chicago Center
12:15PM 42.1392 -85.4975 90° East 467 537 27,000  Level Chicago Center
12:16PM 42.1367 -85.3222 91° East 471 542 27,000  Level Chicago Center
12:18PM 42.1325 -84.9342 91° East 473 544 27,000  Level Chicago Center
12:19PM 42.1394 -84.7575 87° East 474 545 27,000  Level Chicago Center
12:20PM 42.1561 -84.5814 83° East 476 548 27,000  Level Chicago Center
12:21PM 42.1708 -84.4047 84° East 477 549 27,000  Level Chicago Center
12:22PM 42.1839 -84.2122 85° East 475 547 27,000  Level Cleveland Center
12:23PM 42.1978 -84.0336 84° East 475 547 27,000  Level Cleveland Center
12:24PM 42.2136 -83.8522 83° East 475 547 27,000  Level Cleveland Center
12:25PM 42.2269 -83.6733 84° East 481 554 27,000  Level Cleveland Center
12:26PM 42.2400 -83.4889 84° East 481 554 27,000  Level Cleveland Center
12:27PM 42.2547 -83.3100 84° East 487 560 27,000  Level Cleveland Center
12:28PM 42.2672 -83.1394 84° East 487 560 27,000  Level Cleveland Center
12:29PM 42.2792 -82.9603 85° East 487 560 27,000  Level Cleveland Center
12:30PM 42.2911 -82.7839 85° East 476 548 27,000  Level Cleveland Center
12:31PM 42.3028 -82.6044 85° East 476 548 27,000  Level Cleveland Center
12:32PM 42.3161 -82.4281 84° East 476 548 27,000  Level Cleveland Center
12:33PM 42.3253 -82.2486 86° East 476 548 27,000 180 Level Cleveland Center
12:34PM 42.3381 -82.0633 85° East 476 548 27,400 900 Climbing Cleveland Center
12:35PM 42.3506 -81.8867 84° East 481 554 28,800 1,380 Climbing Cleveland Center
12:36PM 42.3608 -81.7044 86° East 475 547 30,200 1,080 Climbing Cleveland Center
12:37PM 42.3728 -81.5358 84° East 462 532 31,000 720 Climbing Cleveland Center
12:38PM 42.3825 -81.3533 86° East 462 532 31,700 660 Climbing Cleveland Center
12:39PM 42.3922 -81.1539 86° East 474 545 32,400 600 Climbing Cleveland Center
12:40PM 42.4033 -80.9739 85° East 480 552 33,000 300 Climbing Cleveland Center
12:41PM 42.4142 -80.7828 86° East 493 567 33,000  Level Cleveland Center
12:42PM 42.4228 -80.5917 86° East 509 586 33,100 360 Climbing Cleveland Center
12:43PM 42.4308 -80.3947 87° East 515 593 33,800 660 Climbing Cleveland Center
12:44PM 42.4431 -80.2089 85° East 515 593 34,500 660 Climbing Cleveland Center
12:45PM 42.4483 -80.0175 88° East 515 593 35,200 660 Climbing Cleveland Center
12:46PM 42.4578 -79.8317 86° East 509 586 35,900 660 Climbing Cleveland Center
12:47PM 42.4669 -79.6458 86° East 498 573 36,600 540 Climbing Cleveland Center
12:48PM 42.4778 -79.4600 85° East 491 565 37,000 180 Climbing Cleveland Center
12:49PM 42.4819 -79.2742 88° East 491 565 37,000  Level Cleveland Center
12:50PM 42.4900 -79.0881 87° East 496 571 37,000  Level Cleveland Center
12:51PM 42.4958 -78.8964 88° East 496 571 37,000  Level Cleveland Center
12:52PM 42.5014 -78.7075 88° East 496 571 37,000  Level Cleveland Center
12:53PM 42.5083 -78.5186 87° East 496 571 37,000  Level Cleveland Center
12:54PM 42.5133 -78.3297 88° East 496 571 37,000 -120 Level Cleveland Center
12:55PM 42.5178 -78.1381 88° East 501 577 36,800 -360 Descending Cleveland Center
12:56PM 42.5219 -77.9461 88° East 501 577 36,300 -540 Descending Cleveland Center
12:57PM 42.5281 -77.7742 87° East 502 578 35,800 -480 Descending Cleveland Center
12:59PM 42.5367 -77.3833 88° East 519 597 35,000 -300 Descending Boston Center
01:00PM 42.5406 -77.1919 88° East 513 590 35,000  Level Boston Center
01:01PM 42.5444 -77.0006 88° East 513 590 35,000  Level Boston Center
01:02PM 42.5475 -76.8119 89° East 508 585 35,000  Level Boston Center
01:03PM 42.5508 -76.6175 89° East 508 585 35,000  Level Boston Center
01:04PM 42.5533 -76.4289 89° East 508 585 35,000 -300 Level Boston Center
01:05PM 42.5578 -76.2372 88° East 508 585 34,500 -660 Descending Boston Center
01:06PM 42.5567 -76.0792 90° East 508 585 33,700 -1,020 Descending Boston Center
01:07PM 42.5517 -75.8450 92° East 515 593 32,500 -1,020 Descending Boston Center
01:08PM 42.5239 -75.6519 101° East 520 598 31,500 -1,020 Descending Boston Center
01:09PM 42.4925 -75.4278 101° East 515 593 30,300 -1,680 Descending Boston Center
01:10PM 42.4669 -75.1986 99° East 510 587 27,900 -2,280 Descending Boston Center
01:12PM 42.4897 -75.0222 80° East 483 556 24,900 -2,760 Descending Boston Center
01:13PM 42.5194 -74.8119 79° East 475 547 21,900 -2,760 Descending Boston Center
01:14PM 42.5439 -74.6353 79° East 480 552 19,400 -1,980 Descending Boston Center
01:15PM 42.5658 -74.4586 80° East 480 552 18,000 -720 Descending Boston Center
01:16PM 42.5853 -74.3042 80° East 473 544 18,000  Level Boston Center
01:17PM 42.6069 -74.1100 81° East 468 539 18,000  Level Boston Center
01:18PM 42.6258 -73.9553 81° East 460 529 18,000  Level Boston Center
01:19PM 42.6408 -73.7411 84° East 465 535 18,000  Level Boston Center
01:20PM 42.6117 -73.5489 102° East 470 541 18,000  Level Boston Center
01:21PM 42.5464 -73.4181 124° Southeast 459 528 18,000 -1,200 Level Boston Center
01:22PM 42.4408 -73.3122 143° Southeast 446 513 15,600 -2,460 Descending Boston Center
01:22PM 42.3933 -73.2667 145° Southeast 431 496 14,300 -2,640 Descending Boston Center
01:24PM 42.2814 -73.1556 144° Southeast 408 470 11,100 -1,500 Descending Boston Center
01:25PM 42.1986 -73.0456 135° Southeast 410 472 11,000 -420 Descending Boston Center
01:26PM 42.1264 -72.9131 126° Southeast 385 443 10,200 -900 Descending Boston Center
01:27PM 42.0789 -72.8233 125° Southeast 326 375 9,200 -1,500 Descending Boston Center
01:28PM 42.0458 -72.7169 113° Southeast 305 351 7,500 -1,740 Descending Boston Center
01:29PM 42.1083 -72.6331 45° Northeast 299 344 5,500 -1,800 Descending Boston Center
01:30PM 42.1647 -72.5661 41° Northeast 266 306 3,800 -1,380 Descending Boston Center
01:31PM 42.1294 -72.5100 130° Southeast 231 266 2,800 -1,020 Descending Boston Center